createdAt,value
2018-05-10T00:03:00.942Z,6.20
2018-05-10T00:08:02.271Z,6.10
2018-05-10T00:13:03.578Z,6.50
2018-05-10T00:18:05.641Z,6.00
2018-05-10T00:23:06.933Z,6.20
2018-05-10T00:28:08.249Z,5.77
2018-05-10T00:33:10.294Z,6.17
2018-05-10T00:38:11.602Z,6.40
2018-05-10T00:43:12.947Z,7.17
2018-05-10T00:48:14.992Z,7.10
2018-05-10T00:53:16.297Z,6.90
2018-05-10T00:58:17.602Z,6.80
2018-05-10T01:03:18.930Z,6.80
2018-05-10T01:08:20.231Z,7.00
2018-05-10T01:13:21.573Z,6.77
2018-05-10T01:18:22.894Z,7.60
2018-05-10T01:23:24.203Z,7.20
2018-05-10T01:28:25.518Z,8.23
2018-05-10T01:33:26.826Z,7.07
2018-05-10T01:38:28.134Z,7.10
2018-05-10T01:43:30.180Z,6.63
2018-05-10T01:48:31.474Z,7.23
2018-05-10T01:53:32.797Z,7.53
2018-05-10T01:58:34.093Z,7.00
2018-05-10T02:03:35.434Z,7.00
2018-05-10T02:08:36.757Z,7.50
2018-05-10T02:13:38.062Z,6.93
2018-05-10T02:18:39.574Z,7.67
2018-05-10T02:23:41.606Z,7.20
2018-05-10T02:28:43.809Z,8.73
2018-05-10T02:33:45.113Z,8.33
2018-05-10T02:38:46.446Z,9.13
2018-05-10T02:43:47.781Z,8.80
2018-05-10T02:48:49.090Z,8.83
2018-05-10T02:53:50.402Z,8.37
2018-05-10T02:58:51.698Z,8.23
2018-05-10T03:03:53.028Z,9.40
2018-05-10T03:08:54.323Z,8.50
2018-05-10T03:13:55.618Z,7.40
2018-05-10T03:18:56.929Z,7.77
2018-05-10T03:23:58.238Z,7.67
2018-05-10T03:28:59.530Z,8.33
2018-05-10T03:34:00.874Z,8.50
2018-05-10T03:39:02.222Z,8.20
2018-05-10T03:44:03.539Z,7.27
2018-05-10T03:49:04.854Z,8.90
2018-05-10T03:54:06.149Z,7.60
2018-05-10T03:59:07.542Z,8.98
2018-05-10T04:04:32.087Z,8.27
2018-05-10T04:09:52.070Z,7.80
2018-05-10T04:14:54.188Z,8.17
2018-05-10T04:19:55.478Z,7.20
2018-05-10T04:24:56.769Z,7.40
2018-05-10T04:29:58.069Z,7.67
2018-05-10T04:34:59.537Z,7.40
2018-05-10T04:40:00.834Z,7.73
2018-05-10T04:45:02.177Z,7.77
2018-05-10T04:50:03.502Z,7.60
2018-05-10T04:55:04.811Z,7.10
2018-05-10T05:00:06.102Z,8.60
2018-05-10T05:05:07.421Z,10.63
2018-05-10T05:10:08.819Z,8.63
2018-05-10T05:15:10.247Z,8.40
2018-05-10T05:20:11.582Z,8.50
2018-05-10T05:25:12.907Z,8.83
2018-05-10T05:30:15.017Z,8.67
2018-05-10T05:35:16.402Z,8.17
2018-05-10T05:40:18.714Z,8.53
2018-05-10T05:45:20.016Z,8.87
2018-05-10T05:50:22.062Z,7.97
2018-05-10T05:55:23.371Z,8.43
2018-05-10T06:00:24.706Z,7.90
2018-05-10T06:05:26.754Z,8.10
2018-05-10T06:10:28.074Z,8.33
2018-05-10T06:15:30.274Z,9.47
2018-05-10T06:20:32.300Z,6.90
2018-05-10T06:25:33.619Z,8.80
2018-05-10T06:30:35.002Z,6.80
2018-05-10T06:35:36.326Z,7.80
2018-05-10T06:40:37.652Z,10.30
2018-05-10T06:45:38.961Z,15.67
2018-05-10T06:50:41.040Z,16.27
2018-05-10T06:55:42.955Z,20.90
2018-05-10T07:00:44.277Z,21.60
2018-05-10T07:05:45.594Z,19.13
2018-05-10T07:10:46.943Z,19.00
2018-05-10T07:15:49.395Z,19.83
2018-05-10T07:20:50.731Z,19.47
2018-05-10T07:25:52.050Z,20.63
2018-05-10T07:30:53.400Z,21.50
2018-05-10T07:35:54.697Z,20.57
2018-05-10T07:40:56.005Z,19.43
2018-05-10T07:45:58.070Z,18.77
2018-05-10T07:50:59.383Z,18.47
2018-05-10T07:56:01.671Z,16.70
2018-05-10T08:01:03.070Z,18.90
2018-05-10T08:06:11.500Z,18.30
2018-05-10T08:11:13.215Z,22.20
2018-05-10T08:16:14.536Z,34.37
2018-05-10T08:21:16.600Z,36.50
2018-05-10T08:26:17.919Z,37.83
2018-05-10T08:31:19.252Z,42.10
2018-05-10T08:36:20.549Z,43.23
2018-05-10T08:41:21.870Z,46.07
2018-05-10T08:46:23.174Z,49.87
2018-05-10T08:51:24.476Z,49.40
2018-05-10T08:56:25.780Z,50.73
2018-05-10T09:01:27.111Z,51.73
2018-05-10T09:06:28.438Z,50.47
2018-05-10T09:11:30.490Z,48.53
2018-05-10T09:16:31.794Z,51.67
2018-05-10T09:21:33.094Z,47.70
2018-05-10T09:26:34.426Z,47.10
2018-05-10T09:31:35.782Z,48.87
2018-05-10T09:36:37.054Z,44.77
2018-05-10T09:41:38.364Z,41.93
2018-05-10T09:46:39.653Z,42.27
2018-05-10T09:51:41.001Z,39.27
2018-05-10T09:56:42.319Z,39.87
2018-05-10T10:01:43.645Z,37.90
2018-05-10T10:06:45.691Z,38.87
2018-05-10T10:11:47.000Z,34.97
2018-05-10T10:16:48.322Z,36.20
2018-05-10T10:21:50.376Z,32.60
2018-05-10T10:26:51.703Z,30.03
2018-05-10T10:31:53.114Z,30.13
2018-05-10T10:36:55.170Z,29.37
2018-05-10T10:41:56.489Z,26.00
2018-05-10T10:46:57.823Z,22.47
2018-05-10T10:51:59.195Z,22.80
2018-05-10T10:57:00.627Z,21.40
2018-05-10T11:02:02.110Z,19.30
2018-05-10T11:07:03.589Z,18.47
2018-05-10T11:12:05.683Z,17.10
2018-05-10T11:17:07.711Z,16.80
2018-05-10T11:22:09.669Z,16.63
2018-05-10T11:27:12.156Z,15.13
2018-05-10T11:32:14.161Z,15.97
2018-05-10T11:37:15.749Z,15.30
2018-05-10T11:42:17.145Z,16.57
2018-05-10T11:47:19.098Z,16.17
2018-05-10T11:52:20.434Z,15.70
2018-05-10T11:57:22.468Z,15.80
2018-05-10T12:02:23.959Z,14.27
2018-05-10T12:07:25.884Z,14.63
2018-05-10T12:12:27.257Z,13.30
2018-05-10T12:17:29.176Z,12.87
2018-05-10T12:22:30.615Z,13.50
2018-05-10T12:27:32.395Z,12.67
2018-05-10T12:32:34.685Z,12.30
2018-05-10T12:37:36.014Z,11.63
2018-05-10T12:42:37.697Z,11.83
2018-05-10T12:47:39.067Z,12.77
2018-05-10T12:52:41.140Z,9.00
2018-05-10T12:57:42.478Z,9.77
2018-05-10T13:02:44.646Z,8.80
2018-05-10T13:07:45.897Z,7.00
2018-05-10T13:12:47.234Z,7.40
2018-05-10T13:17:48.610Z,7.10
2018-05-10T13:22:49.923Z,5.33
2018-05-10T13:27:51.395Z,5.77
2018-05-10T13:32:53.033Z,6.10
2018-05-10T13:37:54.498Z,5.50
2018-05-10T13:42:56.223Z,6.33
2018-05-10T13:47:57.836Z,5.80
2018-05-10T13:52:59.402Z,6.17
2018-05-10T13:58:00.859Z,6.40
2018-05-10T14:03:02.427Z,5.70
2018-05-10T14:08:03.946Z,5.20
2018-05-10T14:13:05.410Z,5.30
2018-05-10T14:18:06.884Z,5.10
2018-05-10T14:23:08.410Z,5.90
2018-05-10T14:28:09.958Z,5.20
2018-05-10T14:33:12.887Z,6.13
2018-05-10T14:38:14.983Z,6.63
2018-05-10T14:43:16.308Z,5.47
2018-05-10T14:48:17.688Z,5.10
2018-05-10T14:53:19.754Z,4.33
2018-05-10T14:58:21.087Z,4.20
2018-05-10T15:03:23.205Z,4.67
2018-05-10T15:08:24.541Z,4.40
2018-05-10T15:13:25.876Z,5.13
2018-05-10T15:18:27.185Z,5.40
2018-05-10T15:23:28.494Z,5.20
2018-05-10T15:28:29.849Z,5.60
2018-05-10T15:33:31.174Z,5.83
2018-05-10T15:38:33.276Z,6.00
2018-05-10T15:43:34.846Z,6.03
2018-05-10T15:48:37.014Z,4.43
2018-05-10T15:53:38.337Z,4.90
2018-05-10T15:58:39.684Z,5.23
2018-05-10T16:03:41.039Z,4.43
2018-05-10T16:08:42.362Z,5.43
2018-05-10T16:13:44.542Z,4.40
2018-05-10T16:18:45.954Z,4.40
2018-05-10T16:23:48.121Z,4.70
2018-05-10T16:28:49.827Z,4.13
2018-05-10T16:33:51.319Z,4.43
2018-05-10T16:38:52.659Z,3.87
2018-05-10T16:43:54.070Z,4.03
2018-05-10T16:48:56.139Z,4.00
2018-05-10T16:53:57.458Z,3.53
2018-05-10T16:58:59.158Z,3.40
2018-05-10T17:04:00.496Z,3.20
2018-05-10T17:09:01.995Z,3.00
2018-05-10T17:14:04.472Z,3.10
2018-05-10T17:19:06.390Z,3.17
2018-05-10T17:24:07.746Z,4.50
2018-05-10T17:29:09.476Z,3.47
2018-05-10T17:34:11.554Z,3.90
2018-05-10T17:39:13.421Z,3.70
2018-05-10T17:44:14.919Z,3.17
2018-05-10T17:49:16.285Z,3.80
2018-05-10T17:54:17.643Z,3.03
2018-05-10T17:59:19.720Z,2.87
2018-05-10T18:04:21.748Z,2.90
2018-05-10T18:09:23.968Z,2.83
2018-05-10T18:14:25.382Z,3.07
2018-05-10T18:19:27.477Z,3.10
2018-05-10T18:24:29.540Z,2.80
2018-05-10T18:29:31.587Z,2.90
2018-05-10T18:34:32.928Z,2.30
2018-05-10T18:39:34.235Z,2.50
2018-05-10T18:44:36.398Z,3.43
2018-05-10T18:49:38.119Z,2.93
2018-05-10T18:54:40.390Z,3.17
2018-05-10T18:59:41.795Z,2.87
2018-05-10T19:04:43.109Z,3.00
2018-05-10T19:09:44.453Z,3.53
2018-05-10T19:14:47.373Z,2.77
2018-05-10T19:19:48.719Z,3.23
2018-05-10T19:24:50.040Z,3.40
2018-05-10T19:29:51.542Z,3.00
2018-05-10T19:34:53.598Z,3.80
2018-05-10T19:39:54.925Z,3.70
2018-05-10T19:44:56.293Z,3.70
2018-05-10T19:49:58.648Z,3.37
2018-05-10T19:55:00.181Z,3.63
2018-05-10T20:00:01.510Z,3.90
2018-05-10T20:05:02.849Z,3.80
2018-05-10T20:10:04.194Z,4.20
2018-05-10T20:15:06.274Z,3.80
2018-05-10T20:20:07.608Z,3.90
2018-05-10T20:25:09.690Z,4.40
2018-05-10T20:30:11.040Z,4.23
2018-05-10T20:35:12.376Z,3.93
2018-05-10T20:40:13.757Z,3.80
2018-05-10T20:45:15.087Z,3.93
2018-05-10T20:50:16.422Z,2.80
2018-05-10T20:55:18.117Z,3.50
2018-05-10T21:00:19.477Z,3.20
2018-05-10T21:05:20.859Z,3.23
2018-05-10T21:10:22.227Z,3.37
2018-05-10T21:15:24.281Z,3.20
2018-05-10T21:20:25.617Z,3.13
2018-05-10T21:25:27.046Z,2.60
2018-05-10T21:30:28.412Z,3.00
2018-05-10T21:35:29.732Z,3.07
2018-05-10T21:40:31.093Z,3.60
2018-05-10T21:45:32.453Z,4.13
2018-05-10T21:50:33.778Z,4.87
2018-05-10T21:55:35.120Z,5.27
2018-05-10T22:00:37.123Z,5.43
2018-05-10T22:05:38.479Z,5.50
2018-05-10T22:10:39.825Z,5.37
2018-05-10T22:15:41.138Z,5.50
2018-05-10T22:20:42.461Z,5.37
2018-05-10T22:25:43.767Z,5.00
2018-05-10T22:30:45.094Z,5.90
2018-05-10T22:35:47.187Z,5.30
2018-05-10T22:40:48.524Z,4.63
2018-05-10T22:45:49.872Z,5.23
2018-05-10T22:50:52.004Z,5.57
2018-05-10T22:55:53.421Z,5.67
2018-05-10T23:00:54.716Z,5.33
2018-05-10T23:05:56.059Z,5.07
2018-05-10T23:10:58.118Z,5.07
2018-05-10T23:15:59.449Z,5.50
2018-05-10T23:21:01.524Z,5.37
2018-05-10T23:26:02.871Z,4.77
2018-05-10T23:31:04.164Z,6.23
2018-05-10T23:36:05.500Z,5.87
2018-05-10T23:41:06.841Z,6.03
2018-05-10T23:46:08.231Z,5.40
2018-05-10T23:51:09.564Z,5.60
2018-05-10T23:56:10.889Z,6.30
